Time;durP1;ratioP1;P1;durP2;ratioP2;P2;SDS_P1;SDS_P2;PMS_P1;PMS_P2;Temp;Humidity;BMP_temperature;BMP_pressure;BME280_temperature;BME280_humidity;BME280_pressure;Samples;Min_cycle;Max_cycle;Signal;HPM_P1;HPM_P2
2021/04/20 00:02:04;;;;;;;38.40;21.25;;;7.30;99.90;;;;;;5112585;28;20308;-73
2021/04/20 00:04:30;;;;;;;37.95;21.33;;;7.40;99.90;;;;;;5103666;28;20204;-74
2021/04/20 00:07:00;;;;;;;36.13;18.60;;;7.30;99.90;;;;;;5103134;28;20842;-72
2021/04/20 00:09:26;;;;;;;40.90;21.33;;;7.30;99.90;;;;;;5098916;28;20284;-75
2021/04/20 00:11:52;;;;;;;39.10;19.90;;;7.30;99.90;;;;;;5098126;28;20742;-72
2021/04/20 00:14:19;;;;;;;36.60;19.70;;;7.30;99.90;;;;;;5112534;28;20201;-72
2021/04/20 00:16:45;;;;;;;37.45;19.48;;;7.30;99.90;;;;;;5112766;28;20197;-73
2021/04/20 00:19:13;;;;;;;40.63;20.83;;;7.20;99.90;;;;;;5116541;28;20201;-74
2021/04/20 00:21:39;;;;;;;33.10;20.05;;;7.10;99.90;;;;;;5116929;28;20915;-73
2021/04/20 00:24:06;;;;;;;37.08;20.42;;;7.20;99.90;;;;;;5117194;27;20252;-73
2021/04/20 00:26:32;;;;;;;39.17;19.77;;;7.20;99.90;;;;;;5115625;28;20284;-76
2021/04/20 00:28:59;;;;;;;34.67;18.92;;;7.20;99.90;;;;;;5116417;28;20205;-76
2021/04/20 00:31:25;;;;;;;36.97;18.52;;;7.30;99.90;;;;;;5116287;28;20236;-76
2021/04/20 00:33:51;;;;;;;36.13;19.25;;;7.20;99.90;;;;;;5116573;28;20255;-75
2021/04/20 00:36:18;;;;;;;34.75;19.38;;;7.30;99.90;;;;;;5116169;28;20201;-75
2021/04/20 00:38:46;;;;;;;35.78;18.75;;;7.30;99.90;;;;;;5116074;28;20296;-75
2021/04/20 00:41:14;;;;;;;37.72;19.67;;;7.30;99.90;;;;;;5116231;28;20221;-73
2021/04/20 00:43:44;;;;;;;39.50;20.20;;;7.30;99.90;;;;;;5116378;28;20205;-73
2021/04/20 00:46:11;;;;;;;39.38;20.02;;;7.20;99.90;;;;;;5115881;28;20232;-69
2021/04/20 00:48:38;;;;;;;36.15;20.08;;;7.20;99.90;;;;;;5116050;28;20289;-74
2021/04/20 00:51:05;;;;;;;38.28;19.40;;;7.10;99.90;;;;;;5115891;28;20229;-74
2021/04/20 00:53:33;;;;;;;38.03;22.00;;;7.10;99.90;;;;;;5115888;27;20208;-73
2021/04/20 00:56:00;;;;;;;38.60;20.42;;;7.10;99.90;;;;;;5115595;28;20215;-73
2021/04/20 00:58:26;;;;;;;36.90;19.50;;;7.00;99.90;;;;;;5115674;28;20288;-74
2021/04/20 01:00:53;;;;;;;35.60;19.63;;;6.90;99.90;;;;;;5115678;28;20288;-75
2021/04/20 01:03:20;;;;;;;41.90;20.70;;;7.00;99.90;;;;;;5115896;28;20201;-75
2021/04/20 01:05:48;;;;;;;34.97;19.50;;;7.00;99.90;;;;;;5115418;28;20584;-75
2021/04/20 01:08:15;;;;;;;37.75;21.55;;;7.00;99.90;;;;;;5115705;28;20221;-76
2021/04/20 01:10:44;;;;;;;41.67;21.75;;;6.80;99.90;;;;;;5115761;28;20198;-76
2021/04/20 01:13:11;;;;;;;36.53;19.35;;;6.60;99.90;;;;;;5115654;27;20760;-76
2021/04/20 01:15:39;;;;;;;42.85;20.75;;;6.40;99.90;;;;;;5115479;28;20250;-77
2021/04/20 01:18:13;;;;;;;42.28;21.30;;;6.30;99.90;;;;;;5115571;28;20202;-76
2021/04/20 01:20:41;;;;;;;40.70;22.83;;;6.20;99.90;;;;;;5115257;28;20214;-77
2021/04/20 01:23:10;;;;;;;40.05;22.17;;;6.30;99.90;;;;;;5115475;28;20221;-77
2021/04/20 01:25:38;;;;;;;44.35;21.35;;;6.40;99.90;;;;;;5115352;28;20230;-77
2021/04/20 01:28:05;;;;;;;37.05;19.63;;;6.50;99.90;;;;;;5114868;28;20225;-77
2021/04/20 01:30:33;;;;;;;38.70;20.10;;;6.70;99.90;;;;;;5114768;28;20288;-74
2021/04/20 01:33:03;;;;;;;40.97;20.98;;;6.70;99.90;;;;;;5118764;28;20229;-76
2021/04/20 01:35:29;;;;;;;46.28;21.73;;;6.70;99.90;;;;;;5117314;28;20228;-75
2021/04/20 01:37:55;;;;;;;35.58;20.02;;;6.70;99.90;;;;;;5118386;28;20269;-75
2021/04/20 01:40:22;;;;;;;35.90;19.85;;;6.70;99.90;;;;;;5119798;28;20232;-76
2021/04/20 01:42:49;;;;;;;37.67;21.42;;;6.70;99.90;;;;;;5117465;28;20374;-75
2021/04/20 01:45:16;;;;;;;35.55;20.77;;;6.60;99.90;;;;;;5116709;28;20284;-75
2021/04/20 01:47:43;;;;;;;40.38;22.05;;;6.60;99.90;;;;;;5116454;28;20304;-75
2021/04/20 01:50:10;;;;;;;42.88;21.00;;;6.70;99.90;;;;;;5116513;28;20669;-75
2021/04/20 01:52:36;;;;;;;36.30;19.73;;;6.80;99.90;;;;;;5117106;28;20228;-75
2021/04/20 01:55:03;;;;;;;38.45;19.42;;;6.90;99.90;;;;;;5116739;28;20232;-75
2021/04/20 01:57:31;;;;;;;35.00;19.08;;;6.80;99.90;;;;;;5116303;28;20285;-75
2021/04/20 01:59:58;;;;;;;34.50;19.85;;;6.80;99.90;;;;;;5116454;28;20197;-75
2021/04/20 02:02:25;;;;;;;38.20;21.08;;;6.80;99.90;;;;;;5116410;28;20312;-75
2021/04/20 02:04:51;;;;;;;35.90;19.65;;;6.80;99.90;;;;;;5116349;27;20292;-75
2021/04/20 02:07:17;;;;;;;34.05;19.98;;;6.90;99.90;;;;;;5116075;28;20622;-75
2021/04/20 02:09:44;;;;;;;33.75;19.58;;;6.90;99.90;;;;;;5116572;28;20570;-75
2021/04/20 02:12:11;;;;;;;33.33;19.88;;;6.90;99.90;;;;;;5116667;28;20286;-75
2021/04/20 02:14:38;;;;;;;34.25;18.83;;;6.90;99.90;;;;;;5117057;28;20209;-75
2021/04/20 02:17:06;;;;;;;33.33;18.70;;;6.80;99.90;;;;;;5116057;28;20266;-75
2021/04/20 02:19:34;;;;;;;36.58;19.85;;;6.80;99.90;;;;;;5117575;28;20712;-76
2021/04/20 02:22:02;;;;;;;34.45;20.73;;;6.80;99.90;;;;;;5117129;28;20252;-75
2021/04/20 02:24:29;;;;;;;37.70;20.42;;;6.50;99.90;;;;;;5117361;28;20197;-75
2021/04/20 02:26:57;;;;;;;37.67;20.52;;;6.30;99.90;;;;;;5116395;27;20304;-75
2021/04/20 02:29:24;;;;;;;36.10;19.40;;;6.10;99.90;;;;;;5116493;28;20268;-75
2021/04/20 02:31:51;;;;;;;37.20;21.13;;;6.00;99.90;;;;;;5115849;28;20784;-76
2021/04/20 02:34:20;;;;;;;39.83;20.33;;;5.80;99.90;;;;;;5116517;28;20209;-75
2021/04/20 02:36:48;;;;;;;37.53;20.00;;;5.90;99.90;;;;;;5116299;28;20288;-75
2021/04/20 02:39:16;;;;;;;36.15;21.08;;;6.00;99.90;;;;;;5116235;28;20568;-75
2021/04/20 02:41:45;;;;;;;32.45;19.42;;;6.10;99.90;;;;;;5116612;28;20217;-75
2021/04/20 02:44:12;;;;;;;33.85;19.13;;;6.20;99.90;;;;;;5116572;28;20201;-76
2021/04/20 02:46:40;;;;;;;38.55;20.75;;;6.30;99.90;;;;;;5116261;28;20234;-75
2021/04/20 02:49:09;;;;;;;35.45;18.95;;;6.40;99.90;;;;;;5117535;27;20229;-75
2021/04/20 02:51:37;;;;;;;36.90;21.42;;;6.30;99.90;;;;;;5116975;28;20257;-75
2021/04/20 02:54:06;;;;;;;35.35;19.83;;;6.40;99.90;;;;;;5116537;28;20288;-75
2021/04/20 02:56:33;;;;;;;36.38;20.05;;;6.40;99.90;;;;;;5115977;28;20193;-75
2021/04/20 02:59:01;;;;;;;36.65;19.88;;;6.50;99.90;;;;;;5115625;28;20206;-75
2021/04/20 03:01:30;;;;;;;38.47;21.67;;;6.50;99.90;;;;;;5116355;28;20785;-75
2021/04/20 03:03:57;;;;;;;37.42;21.10;;;6.60;99.90;;;;;;5116738;28;20203;-76
2021/04/20 03:06:24;;;;;;;36.63;20.02;;;6.60;99.90;;;;;;5116057;28;20678;-75
2021/04/20 03:08:52;;;;;;;41.58;20.25;;;6.70;99.90;;;;;;5115925;28;20613;-75
2021/04/20 03:11:23;;;;;;;32.13;19.17;;;6.70;99.90;;;;;;5116282;28;20227;-75
2021/04/20 03:13:50;;;;;;;37.50;20.95;;;6.80;99.90;;;;;;5116393;28;20217;-75
2021/04/20 03:16:17;;;;;;;38.03;19.58;;;6.60;99.90;;;;;;5115564;28;20209;-75
2021/04/20 03:18:48;;;;;;;38.53;20.73;;;6.50;99.90;;;;;;5116510;28;20201;-75
2021/04/20 03:21:16;;;;;;;42.95;21.55;;;6.50;99.90;;;;;;5115442;28;20231;-75
2021/04/20 03:23:43;;;;;;;33.20;19.70;;;6.60;99.90;;;;;;5115299;28;20288;-75
2021/04/20 03:26:31;;;;;;;34.40;19.55;;;6.70;99.90;;;;;;5115084;28;20201;-75
2021/04/20 03:28:59;;;;;;;35.15;20.38;;;6.70;99.90;;;;;;5115318;28;20192;-75
2021/04/20 03:31:27;;;;;;;36.50;20.67;;;6.80;99.90;;;;;;5114972;28;20312;-75
2021/04/20 03:34:01;;;;;;;35.10;21.60;;;6.80;99.90;;;;;;5115260;28;20250;-75
2021/04/20 03:36:40;;;;;;;36.22;20.73;;;6.90;99.90;;;;;;5114666;28;20272;-75
2021/04/20 03:39:11;;;;;;;33.22;18.52;;;6.90;99.90;;;;;;5115064;28;20257;-75
2021/04/20 03:41:47;;;;;;;35.90;18.48;;;7.00;99.90;;;;;;5115153;28;20225;-75
2021/04/20 03:44:21;;;;;;;33.28;19.23;;;6.90;99.90;;;;;;5115105;28;20667;-75
2021/04/20 03:46:51;;;;;;;37.80;21.08;;;6.80;99.90;;;;;;5114378;28;20312;-75
2021/04/20 03:49:22;;;;;;;31.92;18.65;;;6.90;99.90;;;;;;5114845;28;20200;-76
2021/04/20 03:51:51;;;;;;;38.30;19.95;;;6.90;99.90;;;;;;5114219;28;20225;-75
2021/04/20 03:54:19;;;;;;;36.55;21.48;;;6.90;99.90;;;;;;5114819;28;20233;-75
2021/04/20 03:56:48;;;;;;;34.72;19.85;;;6.80;99.90;;;;;;5114245;28;20268;-75
2021/04/20 03:59:16;;;;;;;39.05;20.48;;;6.60;99.90;;;;;;5114459;28;20229;-75
2021/04/20 04:01:44;;;;;;;40.45;21.77;;;6.70;99.90;;;;;;5114550;28;20308;-75
2021/04/20 04:04:14;;;;;;;39.92;19.95;;;6.80;99.90;;;;;;5114965;28;20205;-75
2021/04/20 04:06:43;;;;;;;36.28;20.05;;;6.90;99.90;;;;;;5114488;28;20413;-75
2021/04/20 04:09:11;;;;;;;34.28;20.63;;;6.90;99.90;;;;;;5115162;28;20197;-75
2021/04/20 04:11:43;;;;;;;44.92;22.70;;;6.90;99.90;;;;;;5114461;28;20229;-75
2021/04/20 04:14:12;;;;;;;40.55;21.30;;;6.70;99.90;;;;;;5114324;28;20292;-75
2021/04/20 04:16:40;;;;;;;42.50;21.90;;;6.70;99.90;;;;;;5114358;28;20198;-75
2021/04/20 04:19:09;;;;;;;40.90;21.55;;;6.80;99.90;;;;;;5114450;28;20292;-75
2021/04/20 04:21:43;;;;;;;45.47;22.98;;;6.90;99.90;;;;;;5114496;28;20263;-76
2021/04/20 04:24:11;;;;;;;39.20;20.73;;;6.90;99.90;;;;;;5114406;28;20186;-76
2021/04/20 04:26:42;;;;;;;32.83;19.42;;;6.90;99.90;;;;;;5113841;28;20277;-75
2021/04/20 04:29:10;;;;;;;35.88;18.20;;;6.90;99.90;;;;;;5115076;28;20197;-75
2021/04/20 04:31:40;;;;;;;36.03;20.33;;;7.00;99.90;;;;;;5115436;28;20232;-75
2021/04/20 04:34:07;;;;;;;31.02;18.23;;;6.90;99.90;;;;;;5115280;28;20277;-75
2021/04/20 04:36:35;;;;;;;35.58;19.83;;;6.90;99.90;;;;;;5114396;28;20288;-75
2021/04/20 04:39:01;;;;;;;31.90;18.48;;;6.90;99.90;;;;;;5114764;28;20319;-75
2021/04/20 04:41:28;;;;;;;31.52;17.75;;;6.80;99.90;;;;;;5115145;28;20253;-75
2021/04/20 04:43:54;;;;;;;38.92;17.83;;;6.60;99.90;;;;;;5115462;28;20207;-76
2021/04/20 04:46:21;;;;;;;42.28;19.02;;;6.70;99.90;;;;;;5114466;28;20291;-75
2021/04/20 04:48:49;;;;;;;35.92;18.95;;;6.70;99.90;;;;;;5113852;28;20296;-76
2021/04/20 04:51:16;;;;;;;33.25;16.95;;;6.80;99.90;;;;;;5114099;28;20311;-76
2021/04/20 04:53:44;;;;;;;35.67;18.00;;;6.80;99.90;;;;;;5114259;28;20231;-75
2021/04/20 04:56:13;;;;;;;34.10;18.02;;;6.80;99.90;;;;;;5113581;28;20276;-75
2021/04/20 04:58:40;;;;;;;32.75;16.85;;;6.80;99.90;;;;;;5114132;28;20197;-76
2021/04/20 05:01:12;;;;;;;28.63;17.20;;;6.90;99.90;;;;;;5114509;28;20676;-75
2021/04/20 05:03:38;;;;;;;40.42;19.55;;;7.00;99.90;;;;;;5116061;28;20237;-76
2021/04/20 05:06:07;;;;;;;55.67;19.65;;;7.20;99.90;;;;;;5117836;28;20288;-75
2021/04/20 05:08:33;;;;;;;46.47;18.60;;;7.00;99.90;;;;;;5118163;28;20257;-76
2021/04/20 05:11:03;;;;;;;34.58;18.50;;;7.00;99.90;;;;;;5118239;28;20223;-76
2021/04/20 05:13:30;;;;;;;39.25;19.35;;;7.00;99.90;;;;;;5118498;28;20197;-75
2021/04/20 05:15:57;;;;;;;29.95;18.60;;;6.90;99.90;;;;;;5118136;27;20288;-75
2021/04/20 05:18:26;;;;;;;35.53;19.73;;;6.70;99.90;;;;;;5117764;28;20292;-75
2021/04/20 05:20:53;;;;;;;32.85;18.63;;;6.60;99.90;;;;;;5117949;27;20647;-76
2021/04/20 05:23:20;;;;;;;40.13;21.77;;;6.50;99.90;;;;;;5118426;28;20316;-76
2021/04/20 05:25:46;;;;;;;39.42;19.67;;;6.40;99.90;;;;;;5118426;27;20212;-75
2021/04/20 05:28:13;;;;;;;39.53;19.80;;;6.30;99.90;;;;;;5118547;28;20229;-75
2021/04/20 05:30:39;;;;;;;42.00;21.08;;;6.20;99.90;;;;;;5117922;28;20288;-75
2021/04/20 05:33:06;;;;;;;38.08;20.15;;;6.20;99.90;;;;;;5117719;28;20642;-76
2021/04/20 05:35:32;;;;;;;45.80;20.98;;;6.30;99.90;;;;;;5116572;28;20268;-76
2021/04/20 05:37:58;;;;;;;42.67;21.65;;;6.50;99.90;;;;;;5116908;27;20663;-76
2021/04/20 05:40:28;;;;;;;44.80;24.17;;;6.70;99.90;;;;;;5117199;28;20205;-76
2021/04/20 05:42:55;;;;;;;41.55;21.38;;;6.80;99.90;;;;;;5117074;28;20737;-75
2021/04/20 05:45:23;;;;;;;37.25;19.42;;;6.70;99.90;;;;;;5116477;28;20755;-77
2021/04/20 05:47:51;;;;;;;40.72;21.70;;;6.70;99.90;;;;;;5116774;28;20270;-75
2021/04/20 05:50:20;;;;;;;38.17;20.77;;;6.80;99.90;;;;;;5117920;28;20205;-76
2021/04/20 05:52:46;;;;;;;44.55;22.30;;;7.00;99.90;;;;;;5117484;28;20311;-76
2021/04/20 05:55:13;;;;;;;40.60;22.10;;;6.90;99.90;;;;;;5116929;28;20219;-76
2021/04/20 05:57:44;;;;;;;34.53;20.77;;;7.00;99.90;;;;;;5116983;28;20259;-75
2021/04/20 06:00:12;;;;;;;39.00;21.08;;;7.10;99.90;;;;;;5117344;28;20640;-76
2021/04/20 06:02:39;;;;;;;38.72;21.45;;;7.20;99.90;;;;;;5117001;27;20324;-75
2021/04/20 06:05:10;;;;;;;45.80;21.90;;;7.00;99.90;;;;;;5115809;28;20205;-73
2021/04/20 06:07:40;;;;;;;44.03;22.13;;;6.80;99.90;;;;;;5104878;28;20570;-76
2021/04/20 06:10:08;;;;;;;41.70;21.92;;;6.70;99.90;;;;;;5096719;28;20204;-76
2021/04/20 06:12:35;;;;;;;43.25;22.65;;;6.60;99.90;;;;;;5097629;28;20233;-75
2021/04/20 06:15:03;;;;;;;51.03;24.10;;;6.50;99.90;;;;;;5096498;28;20229;-76
2021/04/20 06:17:29;;;;;;;43.90;22.67;;;6.50;99.90;;;;;;5096024;28;20331;-76
2021/04/20 06:19:57;;;;;;;52.60;24.70;;;6.60;99.90;;;;;;5095492;28;20293;-75
2021/04/20 06:22:24;;;;;;;46.83;22.67;;;6.80;99.90;;;;;;5094584;28;20218;-75
2021/04/20 06:24:51;;;;;;;44.20;22.60;;;7.10;99.90;;;;;;5094514;28;20285;-76
2021/04/20 06:27:18;;;;;;;42.40;22.10;;;7.40;99.90;;;;;;5094538;28;20218;-76
2021/04/20 06:29:44;;;;;;;37.38;20.60;;;7.70;99.90;;;;;;5094975;28;20294;-76
2021/04/20 06:32:12;;;;;;;39.63;21.55;;;7.90;99.90;;;;;;5094662;28;20240;-75
2021/04/20 06:34:39;;;;;;;40.00;20.65;;;7.90;99.90;;;;;;5094543;28;20205;-76
2021/04/20 06:37:08;;;;;;;36.95;20.95;;;7.80;99.90;;;;;;5094177;28;20666;-76
2021/04/20 06:39:35;;;;;;;39.30;21.15;;;7.90;99.90;;;;;;5095763;28;20359;-76
2021/04/20 06:42:03;;;;;;;34.97;19.67;;;7.80;99.90;;;;;;5094796;28;20225;-76
2021/04/20 06:44:36;;;;;;;38.85;20.73;;;7.70;99.90;;;;;;5094491;28;20202;-75
2021/04/20 06:47:12;;;;;;;38.03;19.73;;;7.70;99.90;;;;;;5093741;28;20309;-72
2021/04/20 06:49:44;;;;;;;35.25;19.52;;;7.90;99.90;;;;;;5093730;28;20296;-73
2021/04/20 06:52:17;;;;;;;27.25;17.48;;;8.20;99.90;;;;;;5093556;28;20232;-71
2021/04/20 06:54:51;;;;;;;28.42;17.58;;;8.50;99.90;;;;;;5093323;28;20673;-71
2021/04/20 06:57:22;;;;;;;24.80;16.40;;;8.70;99.90;;;;;;5093456;28;20284;-71
2021/04/20 07:00:04;;;;;;;24.38;16.02;;;8.70;99.90;;;;;;5093483;28;20201;-71
2021/04/20 07:02:41;;;;;;;29.67;17.60;;;8.60;99.90;;;;;;5093678;28;20257;-70
2021/04/20 07:05:11;;;;;;;30.05;17.80;;;8.60;99.90;;;;;;5094819;28;20201;-74
2021/04/20 07:07:50;;;;;;;35.17;19.80;;;8.70;99.90;;;;;;5094833;28;20796;-74
2021/04/20 07:10:21;;;;;;;27.40;17.90;;;8.70;99.90;;;;;;5095250;28;20611;-74
2021/04/20 07:12:49;;;;;;;35.42;19.30;;;8.60;99.90;;;;;;5094614;28;20695;-73
2021/04/20 07:15:19;;;;;;;39.03;20.02;;;8.60;99.90;;;;;;5095065;28;20688;-72
2021/04/20 07:17:58;;;;;;;30.25;19.08;;;8.70;99.90;;;;;;5094705;28;20205;-73
2021/04/20 07:20:47;;;;;;;30.35;18.27;;;8.80;99.90;;;;;;5094768;28;20334;-73
2021/04/20 07:23:47;;;;;;;29.88;19.65;;;9.10;99.90;;;;;;5094396;28;20222;-73
2021/04/20 07:26:51;;;;;;;29.45;17.42;;;9.30;99.90;;;;;;5070833;28;20208;-73
2021/04/20 07:29:30;;;;;;;29.85;17.00;;;9.50;99.90;;;;;;5052279;28;20211;-73
2021/04/20 07:32:06;;;;;;;30.30;19.42;;;9.60;99.90;;;;;;5090059;28;20309;-72
2021/04/20 07:34:38;;;;;;;29.33;18.30;;;9.50;99.90;;;;;;5094289;28;20680;-73
2021/04/20 07:37:16;;;;;;;25.25;17.48;;;9.50;99.90;;;;;;5094164;28;20284;-73
2021/04/20 07:39:49;;;;;;;29.20;18.50;;;9.60;99.90;;;;;;5094225;28;20662;-73
2021/04/20 07:42:24;;;;;;;28.17;18.17;;;9.70;99.90;;;;;;5093934;28;20690;-73
2021/04/20 07:44:57;;;;;;;26.17;17.60;;;9.80;99.90;;;;;;5094256;28;20205;-73
2021/04/20 07:47:27;;;;;;;31.35;20.48;;;9.90;99.90;;;;;;5094072;28;20236;-73
2021/04/20 07:50:01;;;;;;;30.33;20.05;;;9.90;99.90;;;;;;5094343;28;20293;-73
2021/04/20 07:52:34;;;;;;;31.50;20.33;;;9.90;99.90;;;;;;5093690;28;20279;-73
2021/04/20 07:55:09;;;;;;;29.75;20.13;;;9.80;99.90;;;;;;5093685;28;20650;-73
2021/04/20 07:57:39;;;;;;;28.85;19.05;;;9.80;99.90;;;;;;5093985;28;20197;-73
2021/04/20 08:00:10;;;;;;;29.75;19.02;;;9.90;99.90;;;;;;5094162;28;20293;-74
2021/04/20 08:02:44;;;;;;;32.80;18.40;;;10.30;99.90;;;;;;5094185;28;20245;-74
2021/04/20 08:05:17;;;;;;;27.88;18.83;;;11.00;99.90;;;;;;5093902;28;20647;-74
2021/04/20 08:07:50;;;;;;;28.30;19.08;;;11.60;99.90;;;;;;5093742;28;20294;-74
2021/04/20 08:10:17;;;;;;;30.42;18.45;;;12.00;99.90;;;;;;5093956;28;20209;-74
2021/04/20 08:12:56;;;;;;;30.73;19.27;;;12.20;99.90;;;;;;5093402;28;20270;-73
2021/04/20 08:15:32;;;;;;;31.58;19.25;;;12.20;99.90;;;;;;5093557;28;20221;-75
2021/04/20 08:18:06;;;;;;;25.17;17.20;;;12.20;99.90;;;;;;5093639;28;20653;-73
2021/04/20 08:20:36;;;;;;;23.60;17.33;;;12.20;99.90;;;;;;5093891;28;20205;-73
2021/04/20 08:23:06;;;;;;;27.27;18.13;;;12.30;99.90;;;;;;5093850;28;20249;-73
2021/04/20 08:25:37;;;;;;;24.77;18.60;;;12.40;99.90;;;;;;5093749;28;20289;-73
2021/04/20 08:28:11;;;;;;;29.02;18.15;;;12.40;99.90;;;;;;5093329;28;20681;-73
2021/04/20 08:30:42;;;;;;;30.88;18.27;;;11.80;99.90;;;;;;5093731;28;20202;-73
2021/04/20 08:33:13;;;;;;;29.95;18.73;;;11.80;99.90;;;;;;5093705;28;20237;-73
2021/04/20 08:35:41;;;;;;;27.38;17.20;;;12.00;99.90;;;;;;5093582;28;20288;-73
2021/04/20 08:38:17;;;;;;;26.73;17.38;;;12.20;99.90;;;;;;5094468;28;20297;-73
2021/04/20 08:40:48;;;;;;;28.63;17.30;;;12.40;99.90;;;;;;5097421;28;20292;-74
2021/04/20 08:43:28;;;;;;;27.88;17.42;;;12.50;99.90;;;;;;5097840;28;20313;-73
2021/04/20 08:46:02;;;;;;;28.70;17.08;;;12.90;99.90;;;;;;5097424;28;20205;-73
2021/04/20 08:48:38;;;;;;;24.20;15.90;;;13.40;99.90;;;;;;5097433;28;20217;-74
2021/04/20 08:51:13;;;;;;;26.02;16.63;;;13.60;99.90;;;;;;5097359;28;20237;-74
2021/04/20 08:54:02;;;;;;;25.48;15.02;;;13.80;99.90;;;;;;5097343;28;20273;-73
2021/04/20 08:56:33;;;;;;;26.23;16.67;;;14.30;99.90;;;;;;5096901;28;20246;-74
2021/04/20 08:59:11;;;;;;;20.90;14.52;;;14.80;99.90;;;;;;5097126;28;20209;-74
2021/04/20 09:01:46;;;;;;;19.20;15.65;;;16.50;98.50;;;;;;5096750;28;20351;-74
2021/04/20 09:04:32;;;;;;;21.58;15.60;;;17.40;94.40;;;;;;5097570;28;20190;-74
2021/04/20 09:07:04;;;;;;;19.08;14.35;;;18.40;91.60;;;;;;5096433;28;20202;-74
2021/04/20 09:09:35;;;;;;;19.58;14.02;;;18.90;88.00;;;;;;5096736;28;20242;-74
2021/04/20 09:12:05;;;;;;;20.63;13.17;;;19.70;84.30;;;;;;5096817;28;20231;-75
2021/04/20 09:14:36;;;;;;;17.97;11.87;;;21.10;78.80;;;;;;5096862;28;20809;-74
2021/04/20 09:17:06;;;;;;;14.33;11.50;;;22.50;69.80;;;;;;5096985;28;20449;-74
2021/04/20 09:19:36;;;;;;;14.80;12.20;;;23.20;65.80;;;;;;5097143;28;20533;-75
2021/04/20 09:22:11;;;;;;;17.20;13.53;;;23.80;62.10;;;;;;5096426;28;20557;-74
2021/04/20 09:24:45;;;;;;;15.77;13.57;;;24.80;57.90;;;;;;5096850;28;20444;-74
2021/04/20 09:27:17;;;;;;;17.23;13.43;;;25.10;53.60;;;;;;5096640;28;20472;-74
2021/04/20 09:29:53;;;;;;;18.60;14.77;;;25.90;54.10;;;;;;5096665;28;20867;-75
2021/04/20 09:32:21;;;;;;;15.53;13.83;;;25.60;50.40;;;;;;5096357;28;20469;-74
2021/04/20 09:34:50;;;;;;;19.20;13.50;;;24.60;51.70;;;;;;5096544;28;20442;-75
2021/04/20 09:37:18;;;;;;;14.20;12.50;;;23.70;53.30;;;;;;5096270;28;20914;-75
2021/04/20 09:39:50;;;;;;;15.00;11.37;;;23.60;51.70;;;;;;5096618;28;20527;-74
2021/04/20 09:42:19;;;;;;;14.57;12.00;;;22.90;54.80;;;;;;5096685;28;20609;-75
2021/04/20 09:44:53;;;;;;;12.10;10.40;;;23.60;55.00;;;;;;5096496;28;20449;-75
2021/04/20 09:47:36;;;;;;;16.30;13.50;;;24.60;52.70;;;;;;5095699;28;21004;-75
2021/04/20 09:50:15;;;;;;;17.17;13.73;;;25.70;50.30;;;;;;5095141;28;20447;-74
2021/04/20 09:52:51;;;;;;;17.80;14.50;;;25.90;48.10;;;;;;5096506;28;20853;-74
2021/04/20 09:55:29;;;;;;;17.83;14.00;;;26.10;49.40;;;;;;5095875;28;20451;-75
2021/04/20 09:58:10;;;;;;;16.53;13.40;;;27.30;47.90;;;;;;5111786;27;21059;-74
2021/04/20 10:00:41;;;;;;;17.93;13.43;;;25.30;47.20;;;;;;5111897;28;20431;-74
2021/04/20 10:03:19;;;;;;;16.67;14.27;;;24.60;49.10;;;;;;5112139;28;20462;-74
2021/04/20 10:06:09;;;;;;;14.60;11.33;;;24.30;48.40;;;;;;5111102;28;20519;-74
2021/04/20 10:08:46;;;;;;;11.47;10.17;;;23.60;50.10;;;;;;5111518;28;20939;-74
2021/04/20 10:11:18;;;;;;;12.90;10.63;;;24.60;49.40;;;;;;5111600;28;20880;-74
2021/04/20 10:14:09;;;;;;;15.50;11.80;;;25.00;47.60;;;;;;5112024;28;20510;-75
2021/04/20 10:16:42;;;;;;;18.20;14.20;;;25.00;49.00;;;;;;5111208;28;20478;-73
2021/04/20 10:19:21;;;;;;;14.47;11.53;;;24.00;48.90;;;;;;5111534;28;20440;-74
2021/04/20 10:22:00;;;;;;;11.90;10.63;;;23.40;50.80;;;;;;5111444;28;20463;-73
2021/04/20 10:24:28;;;;;;;12.27;9.70;;;23.40;50.60;;;;;;5111845;28;20829;-74
2021/04/20 10:27:00;;;;;;;12.80;11.40;;;24.60;48.80;;;;;;5110794;28;20984;-74
2021/04/20 10:29:33;;;;;;;13.50;11.23;;;23.80;48.10;;;;;;5111092;28;20906;-74
2021/04/20 10:32:04;;;;;;;16.80;11.73;;;22.80;51.10;;;;;;5110822;28;20461;-74
2021/04/20 10:34:31;;;;;;;13.00;9.50;;;23.70;53.40;;;;;;5111373;28;20427;-74
2021/04/20 10:36:59;;;;;;;13.67;11.77;;;25.30;50.40;;;;;;5110468;28;20574;-75
2021/04/20 10:39:27;;;;;;;11.10;9.77;;;26.70;47.40;;;;;;5110741;28;20791;-74
2021/04/20 10:41:55;;;;;;;12.33;10.93;;;27.60;44.30;;;;;;5110939;28;20492;-74
2021/04/20 10:44:24;;;;;;;14.40;12.23;;;27.20;43.90;;;;;;5110926;28;20479;-74
2021/04/20 10:46:54;;;;;;;13.60;11.43;;;26.30;45.60;;;;;;5110426;28;20449;-74
2021/04/20 10:49:23;;;;;;;13.70;11.37;;;27.10;44.50;;;;;;5111377;28;20526;-74
2021/04/20 10:51:56;;;;;;;12.77;10.67;;;27.10;43.00;;;;;;5110781;28;20513;-74
2021/04/20 10:54:26;;;;;;;12.23;10.93;;;26.80;44.80;;;;;;5110812;28;20439;-74
2021/04/20 10:56:55;;;;;;;11.40;9.10;;;26.40;43.90;;;;;;5110010;28;20913;-74
2021/04/20 10:59:28;;;;;;;10.90;8.93;;;25.50;44.30;;;;;;5110270;28;21009;-74
2021/04/20 11:01:58;;;;;;;10.37;9.30;;;25.30;45.10;;;;;;5110479;28;20856;-74
2021/04/20 11:04:28;;;;;;;9.60;8.60;;;24.00;44.90;;;;;;5110251;28;20541;-74
2021/04/20 11:07:14;;;;;;;8.83;7.20;;;24.20;45.00;;;;;;5110350;28;20443;-74
2021/04/20 11:09:41;;;;;;;10.43;8.20;;;23.90;45.80;;;;;;5096132;28;20464;-74
2021/04/20 11:12:15;;;;;;;9.37;8.30;;;23.80;44.90;;;;;;5096979;28;20548;-74
2021/04/20 11:14:43;;;;;;;9.70;7.50;;;22.50;47.30;;;;;;5096485;28;20454;-74
2021/04/20 11:17:18;;;;;;;9.80;8.60;;;21.90;50.00;;;;;;5096473;28;20866;-74
2021/04/20 11:19:50;;;;;;;9.43;7.90;;;21.60;51.10;;;;;;5096821;28;20439;-74
2021/04/20 11:22:19;;;;;;;12.37;9.60;;;21.70;51.70;;;;;;5096319;28;20554;-73
2021/04/20 11:24:54;;;;;;;11.50;8.60;;;21.00;51.90;;;;;;5096780;28;20973;-73
2021/04/20 11:27:24;;;;;;;11.23;10.00;;;21.00;52.90;;;;;;5096314;28;20534;-74
2021/04/20 11:30:02;;;;;;;12.43;9.30;;;20.60;53.40;;;;;;5096397;28;20528;-73
2021/04/20 11:32:31;;;;;;;12.07;9.77;;;20.30;53.20;;;;;;5096035;28;20614;-73
2021/04/20 11:35:05;;;;;;;12.90;9.83;;;19.80;55.40;;;;;;5096612;28;20484;-73
2021/04/20 11:37:33;;;;;;;11.50;9.00;;;19.80;55.20;;;;;;5095771;28;20482;-73
2021/04/20 11:40:04;;;;;;;9.83;7.40;;;19.50;55.40;;;;;;5096023;28;20447;-73
2021/04/20 11:42:36;;;;;;;10.85;9.07;;;19.40;53.90;;;;;;5096505;28;20472;-73
2021/04/20 11:45:12;;;;;;;9.43;8.07;;;19.10;54.90;;;;;;5096391;28;20293;-73
2021/04/20 11:47:54;;;;;;;7.88;7.05;;;18.90;54.90;;;;;;5095797;28;20241;-74
2021/04/20 11:50:22;;;;;;;9.48;7.70;;;18.80;55.10;;;;;;5096064;28;20202;-73
2021/04/20 11:52:57;;;;;;;8.90;7.38;;;18.40;55.40;;;;;;5095938;28;20224;-73
2021/04/20 11:55:29;;;;;;;10.15;7.60;;;18.40;56.00;;;;;;5095990;28;20197;-73
2021/04/20 11:58:01;;;;;;;10.38;7.90;;;18.30;56.20;;;;;;5096035;28;20248;-73
2021/04/20 12:00:29;;;;;;;10.65;8.32;;;18.20;56.60;;;;;;5095775;28;20206;-73
2021/04/20 12:02:57;;;;;;;12.45;7.97;;;17.80;58.70;;;;;;5095839;28;20255;-73
2021/04/20 12:05:24;;;;;;;10.60;8.23;;;17.90;60.70;;;;;;5095683;28;20209;-73
2021/04/20 12:07:51;;;;;;;12.95;8.68;;;18.10;59.60;;;;;;5095895;28;20198;-73
2021/04/20 12:10:19;;;;;;;9.00;7.15;;;18.10;57.40;;;;;;5095929;28;20247;-73
2021/04/20 12:12:50;;;;;;;10.90;8.45;;;18.40;58.30;;;;;;5095368;28;20314;-73
2021/04/20 12:15:20;;;;;;;9.38;7.00;;;18.60;57.00;;;;;;5095372;28;20289;-73
2021/04/20 12:17:47;;;;;;;8.50;6.90;;;18.70;56.70;;;;;;5095526;28;20236;-73
2021/04/20 12:20:19;;;;;;;8.65;7.40;;;19.00;56.90;;;;;;5094648;28;20202;-73
2021/04/20 12:22:51;;;;;;;8.40;6.80;;;19.00;58.10;;;;;;5094962;28;20219;-73
2021/04/20 12:25:18;;;;;;;9.68;7.85;;;19.10;55.70;;;;;;5095270;28;20864;-73
2021/04/20 12:27:49;;;;;;;9.50;7.80;;;19.00;56.00;;;;;;5095055;28;20700;-73
2021/04/20 12:30:18;;;;;;;9.33;7.27;;;19.10;56.00;;;;;;5095384;28;20446;-73
2021/04/20 12:32:44;;;;;;;7.80;6.95;;;19.20;55.40;;;;;;5095155;28;20511;-73
2021/04/20 12:35:11;;;;;;;8.07;6.90;;;19.20;55.70;;;;;;5095294;28;20656;-73
2021/04/20 12:37:39;;;;;;;7.77;6.87;;;19.30;55.80;;;;;;5094611;28;20479;-73
2021/04/20 12:40:08;;;;;;;8.47;7.10;;;19.30;56.00;;;;;;5094971;28;20444;-73
2021/04/20 12:42:39;;;;;;;9.23;7.30;;;19.30;54.50;;;;;;5095137;28;20472;-73
2021/04/20 12:45:09;;;;;;;6.95;6.25;;;19.20;54.20;;;;;;5094792;28;20440;-73
2021/04/20 12:47:39;;;;;;;8.53;6.83;;;19.20;55.20;;;;;;5095055;28;20204;-73
2021/04/20 12:50:08;;;;;;;7.80;6.95;;;19.20;54.00;;;;;;5094982;28;20448;-73
2021/04/20 12:52:35;;;;;;;8.05;6.55;;;19.30;54.10;;;;;;5094419;28;20228;-73